メインページ
METAR-TAF:

METAR-TAF

空港 :

Cherry Capital Airport

Traverse City, ミシガン州, アメリカ合衆国

緯度: 44-44-12N, 経度: 085-34-12W, 海抜: 190m

現時点の気象観測

当レポートは19分前の11:53(UTC)に作成
南西の風 9kt
気温 24°C
湿度 69%
気圧 1012 hPa
視程: 16.1km
高度4000ftの雲はほとんどない
高度13000ftの千切れ雲あり
高度20000ftの千切れ雲あり

METAR: KTVC 161153Z 23009KT 10SM FEW040 BKN130 BKN200 24/18 A2988 RMK AO2 SLP113 70138 T02440183 10261 20228 51021

時間: 08:12 (12:12 UTC)

予報

当レポートは52分前の11:20(UTC)に作成
予報は16日の 12時(UTC)から 17日の 12時(UTC)まで有効
南西の風 10kt
視程: 10km
高度4000ftの雲は散在している
高度18000ftの千切れ雲あり
16日の 1500時(UTC)から
西/南西の風 10kt、最大19ktの突風を伴う
視程: 10km
高度4000ftの雲は散在している
高度7000ftの千切れ雲あり
16日の 1800時(UTC)から
西/南西の風 9kt
視程: 10km
高度5000ftの千切れ雲あり
17日の 0200時(UTC)から
変向風 3kt
視程: 10km
高度8000ftの千切れ雲あり
17日の 0400時(UTC)から
の風 kt
視程: 10km
高度5000ftの千切れ雲あり

TAF: KTVC 161120Z 1612/1712 22010KT P6SM SCT040 BKN180 FM161500 24010G19KT P6SM SCT040 BKN070 FM161800 24009KT P6SM BKN050 FM170200 VRB03KT P6SM BKN080 FM170400 00000KT P6SM BKN050

4,000以上の空港の気象観測と天気予報(METAR報とTAF報)

利用可能な観測所は地図上に黄色い丸と赤い丸で示す。

丸の上にカーソルを重ねると観測所名を参照できる。

次にクリックすると気象観測と天気予報を参照できる。

マップの切り替え:黒色「×」印の緑ボタンをクリックして拡大、「-」印の緑ボタンをクリックして縮小、緑色の三角印をクリックして隣りの地図に切り替え


METAR-TAF: